GBKIJ EGSU-EGKA
Flight info
| Callsign | GBKIJ |
|---|---|
| Flight time | 0h 59m |
| Altitude | 2000 |
| Route | VFR |
| Aircraft | C172/L-SFG/C |
Departure
| Time | 2026-04-22 10:27 |
|---|---|
| Airport | Duxford Aerodrome (EGSU) |
Arrival
| Time | 2026-04-22 11:26 |
|---|---|
| Airport | Brighton City Airport (EGKA) |
| Time | Latitude | Longitude | Altitude | Speed | Heading |
|---|---|---|---|---|---|
| 2026-04-22 10:15 | 52.09529 | 0.13848 | 117 ft | 0 kts | 216° |
| 2026-04-22 10:20 | 52.09512 | 0.13829 | 117 ft | 6 kts | 219° |
| 2026-04-22 10:21 | 52.09500 | 0.13758 | 117 ft | 7 kts | 250° |
| 2026-04-22 10:21 | 52.09473 | 0.13675 | 118 ft | 11 kts | 257° |
| 2026-04-22 10:21 | 52.09455 | 0.13547 | 118 ft | 12 kts | 256° |
| 2026-04-22 10:21 | 52.09433 | 0.13402 | 118 ft | 14 kts | 256° |
| 2026-04-22 10:22 | 52.09386 | 0.13248 | 118 ft | 16 kts | 241° |
| 2026-04-22 10:22 | 52.09332 | 0.13096 | 118 ft | 15 kts | 241° |
| 2026-04-22 10:22 | 52.09280 | 0.12951 | 118 ft | 15 kts | 242° |
| 2026-04-22 10:22 | 52.09225 | 0.12786 | 118 ft | 18 kts | 239° |
| 2026-04-22 10:23 | 52.09160 | 0.12604 | 119 ft | 19 kts | 239° |
| 2026-04-22 10:23 | 52.09063 | 0.12468 | 119 ft | 19 kts | 211° |
| 2026-04-22 10:23 | 52.08953 | 0.12350 | 119 ft | 18 kts | 209° |
| 2026-04-22 10:23 | 52.08851 | 0.12248 | 119 ft | 17 kts | 216° |
| 2026-04-22 10:24 | 52.08799 | 0.12214 | 119 ft | 0 kts | 96° |
| 2026-04-22 10:25 | 52.08799 | 0.12215 | 119 ft | 1 kts | 104° |
| 2026-04-22 10:25 | 52.08753 | 0.12226 | 119 ft | 11 kts | 153° |
| 2026-04-22 10:25 | 52.08735 | 0.12322 | 119 ft | 10 kts | 63° |
| 2026-04-22 10:26 | 52.08768 | 0.12414 | 119 ft | 19 kts | 62° |
| 2026-04-22 10:26 | 52.08936 | 0.12833 | 150 ft | 60 kts | 63° |
| 2026-04-22 10:26 | 52.09161 | 0.13389 | 371 ft | 59 kts | 64° |
| 2026-04-22 10:26 | 52.09377 | 0.13997 | 595 ft | 65 kts | 65° |
| 2026-04-22 10:27 | 52.09635 | 0.14611 | 781 ft | 69 kts | 57° |
| 2026-04-22 10:27 | 52.09929 | 0.15354 | 919 ft | 82 kts | 64° |
| 2026-04-22 10:27 | 52.10213 | 0.16167 | 1137 ft | 84 kts | 69° |
| 2026-04-22 10:27 | 52.10461 | 0.17035 | 1350 ft | 87 kts | 71° |
| 2026-04-22 10:28 | 52.10632 | 0.17964 | 1579 ft | 86 kts | 82° |
| 2026-04-22 10:28 | 52.10664 | 0.18960 | 1752 ft | 90 kts | 94° |
| 2026-04-22 10:28 | 52.10523 | 0.19986 | 1825 ft | 98 kts | 104° |
| 2026-04-22 10:28 | 52.10371 | 0.21108 | 1826 ft | 103 kts | 99° |
| 2026-04-22 10:29 | 52.10267 | 0.22259 | 1923 ft | 103 kts | 96° |
| 2026-04-22 10:29 | 52.10174 | 0.23360 | 1963 ft | 95 kts | 96° |
| 2026-04-22 10:29 | 52.10078 | 0.24402 | 1977 ft | 92 kts | 96° |
| 2026-04-22 10:29 | 52.09986 | 0.25422 | 1984 ft | 91 kts | 98° |
| 2026-04-22 10:30 | 52.09891 | 0.26443 | 1998 ft | 92 kts | 98° |
| 2026-04-22 10:30 | 52.09790 | 0.27479 | 1994 ft | 94 kts | 97° |
| 2026-04-22 10:30 | 52.09690 | 0.28533 | 1985 ft | 95 kts | 97° |
| 2026-04-22 10:30 | 52.09587 | 0.29587 | 1967 ft | 94 kts | 98° |
| 2026-04-22 10:31 | 52.09489 | 0.30598 | 1957 ft | 88 kts | 97° |
| 2026-04-22 10:31 | 52.09398 | 0.31553 | 1981 ft | 86 kts | 98° |
| 2026-04-22 10:31 | 52.09304 | 0.32511 | 1983 ft | 86 kts | 97° |
| 2026-04-22 10:31 | 52.09207 | 0.33476 | 1984 ft | 87 kts | 97° |
| 2026-04-22 10:32 | 52.09114 | 0.34442 | 1962 ft | 86 kts | 98° |
| 2026-04-22 10:32 | 52.09024 | 0.35379 | 1950 ft | 82 kts | 99° |
| 2026-04-22 10:32 | 52.08944 | 0.36291 | 1980 ft | 82 kts | 96° |
| 2026-04-22 10:32 | 52.08848 | 0.37216 | 1980 ft | 84 kts | 98° |
| 2026-04-22 10:33 | 52.08754 | 0.38146 | 1961 ft | 83 kts | 98° |
| 2026-04-22 10:33 | 52.08664 | 0.39055 | 1947 ft | 80 kts | 98° |
| 2026-04-22 10:33 | 52.08581 | 0.39936 | 1975 ft | 79 kts | 97° |
| 2026-04-22 10:33 | 52.08492 | 0.40829 | 1977 ft | 81 kts | 96° |
| 2026-04-22 10:34 | 52.08402 | 0.41746 | 1986 ft | 84 kts | 97° |
| 2026-04-22 10:34 | 52.08309 | 0.42691 | 1982 ft | 85 kts | 97° |
| 2026-04-22 10:34 | 52.08132 | 0.43617 | 1974 ft | 89 kts | 118° |
| 2026-04-22 10:34 | 52.07688 | 0.44356 | 1978 ft | 93 kts | 129° |
| 2026-04-22 10:35 | 52.07198 | 0.45049 | 1976 ft | 93 kts | 131° |
| 2026-04-22 10:35 | 52.06718 | 0.45721 | 1981 ft | 90 kts | 130° |
| 2026-04-22 10:35 | 52.06250 | 0.46393 | 1986 ft | 90 kts | 130° |
| 2026-04-22 10:35 | 52.05792 | 0.47059 | 1986 ft | 87 kts | 129° |
| 2026-04-22 10:36 | 52.05340 | 0.47724 | 2006 ft | 88 kts | 129° |
| 2026-04-22 10:36 | 52.04890 | 0.48389 | 1980 ft | 86 kts | 129° |
| 2026-04-22 10:36 | 52.04452 | 0.49033 | 1984 ft | 83 kts | 129° |
| 2026-04-22 10:36 | 52.04015 | 0.49678 | 2021 ft | 87 kts | 128° |
| 2026-04-22 10:37 | 52.03555 | 0.50359 | 2003 ft | 91 kts | 129° |
| 2026-04-22 10:37 | 52.02611 | 0.51778 | 1986 ft | 92 kts | 129° |
| 2026-04-22 10:37 | 52.02144 | 0.52454 | 1990 ft | 90 kts | 129° |
| 2026-04-22 10:38 | 52.01679 | 0.53140 | 2006 ft | 91 kts | 128° |
| 2026-04-22 10:38 | 52.01207 | 0.53838 | 2008 ft | 93 kts | 129° |
| 2026-04-22 10:38 | 52.00728 | 0.54549 | 2018 ft | 94 kts | 130° |
| 2026-04-22 10:38 | 52.00236 | 0.55272 | 1996 ft | 95 kts | 129° |
| 2026-04-22 10:39 | 51.99753 | 0.55981 | 1984 ft | 92 kts | 129° |
| 2026-04-22 10:39 | 51.99276 | 0.56688 | 2004 ft | 94 kts | 130° |
| 2026-04-22 10:39 | 51.98801 | 0.57392 | 2007 ft | 92 kts | 129° |
| 2026-04-22 10:39 | 51.98324 | 0.58094 | 2006 ft | 93 kts | 129° |
| 2026-04-22 10:40 | 51.97845 | 0.58796 | 1996 ft | 92 kts | 129° |
| 2026-04-22 10:40 | 51.97371 | 0.59496 | 2012 ft | 93 kts | 129° |
| 2026-04-22 10:40 | 51.96889 | 0.60206 | 2003 ft | 94 kts | 129° |
| 2026-04-22 10:40 | 51.96402 | 0.60917 | 2008 ft | 95 kts | 130° |
| 2026-04-22 10:41 | 51.95910 | 0.61640 | 2013 ft | 96 kts | 128° |
| 2026-04-22 10:41 | 51.95417 | 0.62378 | 2002 ft | 97 kts | 129° |
| 2026-04-22 10:41 | 51.94916 | 0.63113 | 1992 ft | 97 kts | 129° |
| 2026-04-22 10:41 | 51.94430 | 0.63830 | 1966 ft | 91 kts | 128° |
| 2026-04-22 10:42 | 51.93969 | 0.64495 | 1978 ft | 87 kts | 128° |
| 2026-04-22 10:42 | 51.93525 | 0.65151 | 2014 ft | 87 kts | 128° |
| 2026-04-22 10:42 | 51.93069 | 0.65830 | 2005 ft | 90 kts | 129° |
| 2026-04-22 10:42 | 51.92597 | 0.66522 | 2022 ft | 93 kts | 130° |
| 2026-04-22 10:43 | 51.92121 | 0.67251 | 1996 ft | 94 kts | 128° |
| 2026-04-22 10:43 | 51.91561 | 0.67834 | 2012 ft | 103 kts | 154° |
| 2026-04-22 10:43 | 51.90803 | 0.67682 | 2025 ft | 121 kts | 195° |
| 2026-04-22 10:43 | 51.90088 | 0.66932 | 1981 ft | 122 kts | 209° |
| 2026-04-22 10:44 | 51.89437 | 0.66070 | 2009 ft | 120 kts | 211° |
| 2026-04-22 10:44 | 51.88778 | 0.65222 | 2017 ft | 122 kts | 209° |
| 2026-04-22 10:44 | 51.88095 | 0.64379 | 2036 ft | 126 kts | 210° |
| 2026-04-22 10:44 | 51.87391 | 0.63539 | 2027 ft | 125 kts | 209° |
| 2026-04-22 10:45 | 51.86689 | 0.62706 | 2026 ft | 125 kts | 209° |
| 2026-04-22 10:45 | 51.85996 | 0.61880 | 2025 ft | 125 kts | 207° |
| 2026-04-22 10:45 | 51.85285 | 0.61095 | 2023 ft | 123 kts | 207° |
| 2026-04-22 10:45 | 51.84594 | 0.60276 | 2025 ft | 124 kts | 206° |
| 2026-04-22 10:46 | 51.83899 | 0.59468 | 2005 ft | 121 kts | 208° |
| 2026-04-22 10:46 | 51.83222 | 0.58681 | 2000 ft | 118 kts | 206° |
| 2026-04-22 10:46 | 51.82556 | 0.57916 | 2009 ft | 117 kts | 206° |
| 2026-04-22 10:46 | 51.81891 | 0.57146 | 1997 ft | 117 kts | 205° |
| 2026-04-22 10:47 | 51.81231 | 0.56384 | 2016 ft | 117 kts | 206° |
| 2026-04-22 10:47 | 51.80570 | 0.55615 | 1984 ft | 117 kts | 206° |
| 2026-04-22 10:47 | 51.79900 | 0.54868 | 2010 ft | 119 kts | 207° |
| 2026-04-22 10:47 | 51.79225 | 0.54091 | 2004 ft | 120 kts | 206° |
| 2026-04-22 10:48 | 51.78538 | 0.53299 | 2020 ft | 123 kts | 205° |
| 2026-04-22 10:48 | 51.77845 | 0.52498 | 2005 ft | 122 kts | 206° |
| 2026-04-22 10:48 | 51.77157 | 0.51700 | 1979 ft | 121 kts | 207° |
| 2026-04-22 10:48 | 51.76472 | 0.50919 | 1991 ft | 121 kts | 206° |
| 2026-04-22 10:49 | 51.75790 | 0.50128 | 1982 ft | 121 kts | 207° |
| 2026-04-22 10:49 | 51.75113 | 0.49339 | 1995 ft | 119 kts | 206° |
| 2026-04-22 10:49 | 51.74438 | 0.48561 | 1994 ft | 119 kts | 205° |
| 2026-04-22 10:49 | 51.73765 | 0.47790 | 1998 ft | 118 kts | 208° |
| 2026-04-22 10:50 | 51.73077 | 0.47082 | 2001 ft | 116 kts | 199° |
| 2026-04-22 10:50 | 51.72350 | 0.46506 | 1993 ft | 117 kts | 198° |
| 2026-04-22 10:50 | 51.71619 | 0.45918 | 1993 ft | 118 kts | 195° |
| 2026-04-22 10:50 | 51.70885 | 0.45326 | 1962 ft | 117 kts | 195° |
| 2026-04-22 10:51 | 51.70164 | 0.44745 | 1971 ft | 116 kts | 196° |
| 2026-04-22 10:51 | 51.69442 | 0.44172 | 1991 ft | 116 kts | 195° |
| 2026-04-22 10:51 | 51.68707 | 0.43587 | 2002 ft | 119 kts | 199° |
| 2026-04-22 10:51 | 51.67965 | 0.42992 | 2001 ft | 120 kts | 198° |
| 2026-04-22 10:52 | 51.67220 | 0.42393 | 1995 ft | 118 kts | 198° |
| 2026-04-22 10:52 | 51.66499 | 0.41805 | 1998 ft | 116 kts | 197° |
| 2026-04-22 10:52 | 51.65785 | 0.41233 | 2013 ft | 115 kts | 196° |
| 2026-04-22 10:52 | 51.65069 | 0.40660 | 2014 ft | 115 kts | 196° |
| 2026-04-22 10:53 | 51.64354 | 0.40101 | 2002 ft | 114 kts | 197° |
| 2026-04-22 10:53 | 51.63635 | 0.39521 | 2017 ft | 116 kts | 197° |
| 2026-04-22 10:53 | 51.62901 | 0.38934 | 2024 ft | 119 kts | 199° |
| 2026-04-22 10:53 | 51.62159 | 0.38340 | 2009 ft | 119 kts | 198° |
| 2026-04-22 10:54 | 51.61410 | 0.37736 | 2014 ft | 122 kts | 198° |
| 2026-04-22 10:54 | 51.60676 | 0.37136 | 1994 ft | 117 kts | 196° |
| 2026-04-22 10:54 | 51.59941 | 0.36544 | 1996 ft | 115 kts | 195° |
| 2026-04-22 10:54 | 51.59220 | 0.35967 | 2003 ft | 116 kts | 195° |
| 2026-04-22 10:55 | 51.58500 | 0.35393 | 2018 ft | 116 kts | 195° |
| 2026-04-22 10:55 | 51.57783 | 0.34822 | 2036 ft | 118 kts | 196° |
| 2026-04-22 10:55 | 51.57039 | 0.34233 | 2028 ft | 120 kts | 196° |
| 2026-04-22 10:55 | 51.56292 | 0.33640 | 2024 ft | 120 kts | 197° |
| 2026-04-22 10:56 | 51.55544 | 0.33054 | 2029 ft | 120 kts | 197° |
| 2026-04-22 10:56 | 51.54794 | 0.32435 | 2015 ft | 121 kts | 198° |
| 2026-04-22 10:56 | 51.54054 | 0.31823 | 1993 ft | 118 kts | 197° |
| 2026-04-22 10:56 | 51.53310 | 0.31241 | 2057 ft | 120 kts | 194° |
| 2026-04-22 10:57 | 51.52551 | 0.30647 | 2035 ft | 121 kts | 195° |
| 2026-04-22 10:57 | 51.51790 | 0.30047 | 2018 ft | 122 kts | 195° |
| 2026-04-22 10:57 | 51.51045 | 0.29448 | 1989 ft | 118 kts | 195° |
| 2026-04-22 10:57 | 51.50312 | 0.28868 | 2024 ft | 118 kts | 194° |
| 2026-04-22 10:58 | 51.49571 | 0.28276 | 2007 ft | 119 kts | 194° |
| 2026-04-22 10:58 | 51.48833 | 0.27681 | 2000 ft | 118 kts | 195° |
| 2026-04-22 10:58 | 51.48098 | 0.27100 | 2008 ft | 118 kts | 196° |
| 2026-04-22 10:58 | 51.47361 | 0.26520 | 2001 ft | 118 kts | 195° |
| 2026-04-22 10:59 | 51.46619 | 0.25968 | 2003 ft | 115 kts | 188° |
| 2026-04-22 10:59 | 51.45868 | 0.25892 | 2010 ft | 107 kts | 167° |
| 2026-04-22 10:59 | 51.45121 | 0.25910 | 2011 ft | 108 kts | 169° |
| 2026-04-22 10:59 | 51.44374 | 0.25917 | 2014 ft | 109 kts | 168° |
| 2026-04-22 11:00 | 51.43615 | 0.25926 | 1999 ft | 109 kts | 167° |
| 2026-04-22 11:00 | 51.42868 | 0.25925 | 1972 ft | 105 kts | 166° |
| 2026-04-22 11:00 | 51.42163 | 0.25931 | 1953 ft | 98 kts | 165° |
| 2026-04-22 11:00 | 51.41501 | 0.25934 | 1974 ft | 92 kts | 162° |
| 2026-04-22 11:01 | 51.40844 | 0.25965 | 1953 ft | 96 kts | 163° |
| 2026-04-22 11:01 | 51.40178 | 0.25986 | 1970 ft | 97 kts | 162° |
| 2026-04-22 11:01 | 51.39495 | 0.26010 | 1999 ft | 100 kts | 162° |
| 2026-04-22 11:01 | 51.38779 | 0.26030 | 2008 ft | 105 kts | 165° |
| 2026-04-22 11:02 | 51.38042 | 0.26045 | 2012 ft | 107 kts | 166° |
| 2026-04-22 11:02 | 51.37533 | 0.26049 | 2015 ft | 108 kts | 167° |
| 2026-04-22 11:02 | 51.36795 | 0.26052 | 2005 ft | 107 kts | 167° |
| 2026-04-22 11:02 | 51.36048 | 0.26064 | 2007 ft | 107 kts | 166° |
| 2026-04-22 11:03 | 51.35306 | 0.26071 | 1978 ft | 104 kts | 166° |
| 2026-04-22 11:03 | 51.34593 | 0.26077 | 1982 ft | 101 kts | 165° |
| 2026-04-22 11:03 | 51.33885 | 0.26085 | 2030 ft | 103 kts | 164° |
| 2026-04-22 11:03 | 51.33148 | 0.26114 | 2035 ft | 108 kts | 164° |
| 2026-04-22 11:04 | 51.32393 | 0.26127 | 2158 ft | 108 kts | 166° |
| 2026-04-22 11:04 | 51.31650 | 0.26133 | 2167 ft | 106 kts | 166° |
| 2026-04-22 11:04 | 51.30921 | 0.26137 | 2155 ft | 103 kts | 166° |
| 2026-04-22 11:04 | 51.30205 | 0.26144 | 2172 ft | 102 kts | 165° |
| 2026-04-22 11:05 | 51.29497 | 0.26165 | 2176 ft | 101 kts | 165° |
| 2026-04-22 11:05 | 51.28802 | 0.26176 | 2176 ft | 99 kts | 166° |
| 2026-04-22 11:05 | 51.28121 | 0.26185 | 2152 ft | 96 kts | 166° |
| 2026-04-22 11:05 | 51.27486 | 0.26266 | 2130 ft | 92 kts | 168° |
| 2026-04-22 11:06 | 51.26845 | 0.26217 | 2158 ft | 91 kts | 166° |
| 2026-04-22 11:06 | 51.26194 | 0.26220 | 2214 ft | 98 kts | 165° |
| 2026-04-22 11:06 | 51.25462 | 0.26256 | 2282 ft | 112 kts | 165° |
| 2026-04-22 11:06 | 51.24667 | 0.26290 | 2271 ft | 114 kts | 168° |
| 2026-04-22 11:07 | 51.23868 | 0.26293 | 2271 ft | 115 kts | 168° |
| 2026-04-22 11:07 | 51.23070 | 0.26293 | 2237 ft | 113 kts | 168° |
| 2026-04-22 11:07 | 51.22290 | 0.26292 | 2223 ft | 111 kts | 167° |
| 2026-04-22 11:07 | 51.21515 | 0.26309 | 2255 ft | 112 kts | 168° |
| 2026-04-22 11:08 | 51.20728 | 0.26316 | 2247 ft | 113 kts | 167° |
| 2026-04-22 11:08 | 51.19948 | 0.26342 | 2255 ft | 112 kts | 168° |
| 2026-04-22 11:08 | 51.19165 | 0.26360 | 2243 ft | 112 kts | 169° |
| 2026-04-22 11:08 | 51.18399 | 0.26377 | 2221 ft | 109 kts | 168° |
| 2026-04-22 11:09 | 51.17653 | 0.26384 | 2226 ft | 107 kts | 168° |
| 2026-04-22 11:09 | 51.16917 | 0.26405 | 2247 ft | 106 kts | 168° |
| 2026-04-22 11:09 | 51.16173 | 0.26421 | 2238 ft | 107 kts | 168° |
| 2026-04-22 11:09 | 51.15421 | 0.26440 | 2254 ft | 110 kts | 167° |
| 2026-04-22 11:10 | 51.14641 | 0.26457 | 2248 ft | 113 kts | 168° |
| 2026-04-22 11:10 | 51.13851 | 0.26471 | 2221 ft | 114 kts | 168° |
| 2026-04-22 11:10 | 51.13056 | 0.26249 | 2223 ft | 124 kts | 195° |
| 2026-04-22 11:10 | 51.12293 | 0.25575 | 2215 ft | 126 kts | 201° |
| 2026-04-22 11:11 | 51.11547 | 0.24880 | 2197 ft | 123 kts | 202° |
| 2026-04-22 11:11 | 51.10817 | 0.24200 | 2169 ft | 119 kts | 198° |
| 2026-04-22 11:11 | 51.10093 | 0.23554 | 2185 ft | 120 kts | 201° |
| 2026-04-22 11:11 | 51.09366 | 0.22882 | 2212 ft | 122 kts | 199° |
| 2026-04-22 11:12 | 51.08624 | 0.22214 | 2198 ft | 123 kts | 199° |
| 2026-04-22 11:12 | 51.07876 | 0.21552 | 2191 ft | 124 kts | 199° |
| 2026-04-22 11:12 | 51.07125 | 0.20873 | 2184 ft | 124 kts | 199° |
| 2026-04-22 11:12 | 51.06364 | 0.20194 | 2193 ft | 126 kts | 199° |
| 2026-04-22 11:13 | 51.05599 | 0.19506 | 2177 ft | 127 kts | 200° |
| 2026-04-22 11:13 | 51.04822 | 0.18805 | 2164 ft | 127 kts | 201° |
| 2026-04-22 11:13 | 51.04062 | 0.18100 | 2144 ft | 125 kts | 199° |
| 2026-04-22 11:13 | 51.03309 | 0.17427 | 2136 ft | 123 kts | 199° |
| 2026-04-22 11:14 | 51.02564 | 0.16761 | 2120 ft | 121 kts | 198° |
| 2026-04-22 11:14 | 51.01815 | 0.16142 | 2117 ft | 123 kts | 199° |
| 2026-04-22 11:14 | 51.01077 | 0.15454 | 2101 ft | 123 kts | 201° |
| 2026-04-22 11:14 | 51.00348 | 0.14788 | 2101 ft | 123 kts | 199° |
| 2026-04-22 11:15 | 50.99599 | 0.14122 | 2096 ft | 124 kts | 199° |
| 2026-04-22 11:15 | 50.98854 | 0.13445 | 2067 ft | 122 kts | 201° |
| 2026-04-22 11:15 | 50.98118 | 0.12789 | 2062 ft | 121 kts | 200° |
| 2026-04-22 11:15 | 50.97389 | 0.12137 | 2056 ft | 120 kts | 200° |
| 2026-04-22 11:16 | 50.96664 | 0.11492 | 2045 ft | 120 kts | 200° |
| 2026-04-22 11:16 | 50.95943 | 0.10849 | 2030 ft | 118 kts | 199° |
| 2026-04-22 11:16 | 50.95222 | 0.10211 | 2030 ft | 120 kts | 198° |
| 2026-04-22 11:16 | 50.94485 | 0.09555 | 2040 ft | 123 kts | 200° |
| 2026-04-22 11:17 | 50.93731 | 0.08883 | 2031 ft | 126 kts | 200° |
| 2026-04-22 11:17 | 50.92967 | 0.08197 | 2015 ft | 127 kts | 199° |
| 2026-04-22 11:17 | 50.92198 | 0.07508 | 1997 ft | 127 kts | 200° |
| 2026-04-22 11:17 | 50.91441 | 0.06827 | 1963 ft | 123 kts | 200° |
| 2026-04-22 11:18 | 50.90705 | 0.06169 | 1972 ft | 121 kts | 200° |
| 2026-04-22 11:18 | 50.89975 | 0.05521 | 1971 ft | 119 kts | 199° |
| 2026-04-22 11:18 | 50.89257 | 0.04882 | 1991 ft | 119 kts | 199° |
| 2026-04-22 11:18 | 50.88527 | 0.04241 | 2003 ft | 121 kts | 198° |
| 2026-04-22 11:19 | 50.87781 | 0.03575 | 2017 ft | 125 kts | 199° |
| 2026-04-22 11:19 | 50.87036 | 0.02894 | 1991 ft | 122 kts | 195° |
| 2026-04-22 11:19 | 50.86339 | 0.02093 | 1980 ft | 129 kts | 219° |
| 2026-04-22 11:19 | 50.85793 | 0.00939 | 2008 ft | 132 kts | 228° |
| 2026-04-22 11:20 | 50.85272 | -0.00273 | 2001 ft | 135 kts | 230° |
| 2026-04-22 11:20 | 50.84747 | -0.01531 | 2004 ft | 138 kts | 230° |
| 2026-04-22 11:20 | 50.84215 | -0.02806 | 2019 ft | 140 kts | 229° |
| 2026-04-22 11:20 | 50.83691 | -0.04079 | 1939 ft | 135 kts | 229° |
| 2026-04-22 11:21 | 50.83164 | -0.05269 | 1982 ft | 131 kts | 229° |
| 2026-04-22 11:21 | 50.82636 | -0.06494 | 1856 ft | 136 kts | 230° |
| 2026-04-22 11:21 | 50.82112 | -0.07736 | 1892 ft | 133 kts | 231° |
| 2026-04-22 11:21 | 50.81613 | -0.08965 | 1976 ft | 134 kts | 232° |
| 2026-04-22 11:22 | 50.81146 | -0.10272 | 2021 ft | 138 kts | 240° |
| 2026-04-22 11:22 | 50.80881 | -0.11727 | 2025 ft | 140 kts | 260° |
| 2026-04-22 11:22 | 50.80759 | -0.13262 | 1991 ft | 141 kts | 263° |
| 2026-04-22 11:22 | 50.80675 | -0.14793 | 2002 ft | 138 kts | 266° |
| 2026-04-22 11:23 | 50.80641 | -0.16312 | 1970 ft | 141 kts | 270° |
| 2026-04-22 11:23 | 50.80637 | -0.17843 | 1950 ft | 142 kts | 272° |
| 2026-04-22 11:23 | 50.80659 | -0.19385 | 1910 ft | 141 kts | 274° |
| 2026-04-22 11:23 | 50.80672 | -0.20990 | 1803 ft | 145 kts | 273° |
| 2026-04-22 11:24 | 50.80720 | -0.22572 | 1663 ft | 148 kts | 275° |
| 2026-04-22 11:24 | 50.80763 | -0.24227 | 1446 ft | 151 kts | 275° |
| 2026-04-22 11:24 | 50.80808 | -0.25814 | 1407 ft | 137 kts | 276° |
| 2026-04-22 11:24 | 50.80854 | -0.27326 | 1235 ft | 140 kts | 274° |
| 2026-04-22 11:25 | 50.80886 | -0.28768 | 1103 ft | 126 kts | 281° |
| 2026-04-22 11:25 | 50.81201 | -0.29933 | 1022 ft | 110 kts | 315° |
| 2026-04-22 11:25 | 50.81659 | -0.30685 | 885 ft | 79 kts | 358° |
| 2026-04-22 11:25 | 50.82159 | -0.30650 | 667 ft | 68 kts | 30° |
| 2026-04-22 11:26 | 50.82563 | -0.30349 | 466 ft | 65 kts | 41° |
| 2026-04-22 11:26 | 50.82993 | -0.30074 | 243 ft | 76 kts | 27° |
| 2026-04-22 11:26 | 50.83449 | -0.29811 | 7 ft | 55 kts | 40° |
| 2026-04-22 11:26 | 50.83690 | -0.29645 | 7 ft | 27 kts | 24° |
| 2026-04-22 11:27 | 50.83853 | -0.29547 | 5 ft | 25 kts | 21° |
| 2026-04-22 11:27 | 50.83961 | -0.29510 | 4 ft | 7 kts | 336° |
| 2026-04-22 11:27 | 50.83965 | -0.29522 | 4 ft | 0 kts | 261° |
| 2026-04-22 11:27 | 50.83965 | -0.29542 | 4 ft | 0 kts | 298° |